sensor_id;sensor_type;location;lat;lon;timestamp;P1;durP1;ratioP1;P2;durP2;ratioP2
64816;SDS011;53289;45.602;11.904;2022-09-09T00:00:53;9.55;;;6.15;;
64816;SDS011;53289;45.602;11.904;2022-09-09T00:03:53;7.78;;;5.43;;
64816;SDS011;53289;45.602;11.904;2022-09-09T00:06:32;6.97;;;5.05;;
64816;SDS011;53289;45.602;11.904;2022-09-09T00:09:12;7.43;;;4.88;;
64816;SDS011;53289;45.602;11.904;2022-09-09T00:11:44;8.55;;;5.47;;
64816;SDS011;53289;45.602;11.904;2022-09-09T00:17:20;8.10;;;5.22;;
64816;SDS011;53289;45.602;11.904;2022-09-09T00:19:54;9.02;;;5.50;;
64816;SDS011;53289;45.602;11.904;2022-09-09T00:22:27;8.13;;;4.95;;
64816;SDS011;53289;45.602;11.904;2022-09-09T00:25:01;10.18;;;5.80;;
64816;SDS011;53289;45.602;11.904;2022-09-09T00:32:50;12.15;;;5.82;;
64816;SDS011;53289;45.602;11.904;2022-09-09T00:35:35;10.38;;;5.72;;
64816;SDS011;53289;45.602;11.904;2022-09-09T00:38:13;9.82;;;6.20;;
64816;SDS011;53289;45.602;11.904;2022-09-09T00:41:35;12.57;;;6.70;;
64816;SDS011;53289;45.602;11.904;2022-09-09T00:50:01;10.75;;;6.80;;
64816;SDS011;53289;45.602;11.904;2022-09-09T00:55:21;14.50;;;7.55;;
64816;SDS011;53289;45.602;11.904;2022-09-09T00:57:57;11.13;;;7.35;;
64816;SDS011;53289;45.602;11.904;2022-09-09T01:00:27;14.05;;;7.40;;
64816;SDS011;53289;45.602;11.904;2022-09-09T01:05:48;11.70;;;6.35;;
64816;SDS011;53289;45.602;11.904;2022-09-09T01:10:58;9.00;;;6.05;;
64816;SDS011;53289;45.602;11.904;2022-09-09T01:13:34;11.65;;;6.65;;
64816;SDS011;53289;45.602;11.904;2022-09-09T01:16:03;12.75;;;6.93;;
64816;SDS011;53289;45.602;11.904;2022-09-09T01:18:33;10.27;;;6.70;;
64816;SDS011;53289;45.602;11.904;2022-09-09T01:26:35;13.68;;;8.57;;
64816;SDS011;53289;45.602;11.904;2022-09-09T01:34:13;10.88;;;6.03;;
64816;SDS011;53289;45.602;11.904;2022-09-09T01:39:16;12.95;;;9.20;;
64816;SDS011;53289;45.602;11.904;2022-09-09T01:41:42;15.13;;;7.93;;
64816;SDS011;53289;45.602;11.904;2022-09-09T01:44:08;15.63;;;8.73;;
64816;SDS011;53289;45.602;11.904;2022-09-09T01:46:36;11.38;;;7.13;;
64816;SDS011;53289;45.602;11.904;2022-09-09T01:49:02;14.40;;;8.77;;
64816;SDS011;53289;45.602;11.904;2022-09-09T01:51:31;15.20;;;8.32;;
64816;SDS011;53289;45.602;11.904;2022-09-09T01:53:57;13.30;;;8.68;;
64816;SDS011;53289;45.602;11.904;2022-09-09T02:13:12;12.48;;;6.55;;
64816;SDS011;53289;45.602;11.904;2022-09-09T02:18:26;8.65;;;5.70;;
64816;SDS011;53289;45.602;11.904;2022-09-09T02:20:56;10.13;;;5.88;;
64816;SDS011;53289;45.602;11.904;2022-09-09T02:23:23;10.30;;;5.72;;
64816;SDS011;53289;45.602;11.904;2022-09-09T02:25:49;12.15;;;5.78;;
64816;SDS011;53289;45.602;11.904;2022-09-09T02:28:19;11.73;;;6.00;;
64816;SDS011;53289;45.602;11.904;2022-09-09T02:30:49;8.20;;;5.00;;
64816;SDS011;53289;45.602;11.904;2022-09-09T02:33:22;7.82;;;5.32;;
64816;SDS011;53289;45.602;11.904;2022-09-09T02:35:51;11.18;;;5.65;;
64816;SDS011;53289;45.602;11.904;2022-09-09T02:38:21;9.57;;;5.35;;
64816;SDS011;53289;45.602;11.904;2022-09-09T02:40:53;6.97;;;4.25;;
64816;SDS011;53289;45.602;11.904;2022-09-09T02:43:19;8.27;;;4.55;;
64816;SDS011;53289;45.602;11.904;2022-09-09T02:45:59;8.05;;;5.05;;
64816;SDS011;53289;45.602;11.904;2022-09-09T02:54:32;8.82;;;4.90;;
64816;SDS011;53289;45.602;11.904;2022-09-09T02:57:11;10.18;;;4.88;;
64816;SDS011;53289;45.602;11.904;2022-09-09T02:59:48;8.70;;;4.43;;
64816;SDS011;53289;45.602;11.904;2022-09-09T03:02:15;11.52;;;5.25;;
64816;SDS011;53289;45.602;11.904;2022-09-09T03:04:41;11.63;;;4.25;;
64816;SDS011;53289;45.602;11.904;2022-09-09T03:07:10;7.85;;;4.60;;
64816;SDS011;53289;45.602;11.904;2022-09-09T03:09:37;5.28;;;4.50;;
64816;SDS011;53289;45.602;11.904;2022-09-09T03:12:03;6.05;;;3.70;;
64816;SDS011;53289;45.602;11.904;2022-09-09T03:14:29;4.00;;;3.40;;
64816;SDS011;53289;45.602;11.904;2022-09-09T03:16:56;7.65;;;3.42;;
64816;SDS011;53289;45.602;11.904;2022-09-09T03:19:25;6.53;;;3.97;;
64816;SDS011;53289;45.602;11.904;2022-09-09T03:21:53;7.40;;;3.92;;
64816;SDS011;53289;45.602;11.904;2022-09-09T03:24:19;5.95;;;3.80;;
64816;SDS011;53289;45.602;11.904;2022-09-09T03:26:45;5.72;;;3.50;;
64816;SDS011;53289;45.602;11.904;2022-09-09T03:29:12;6.07;;;3.65;;
64816;SDS011;53289;45.602;11.904;2022-09-09T03:31:38;6.30;;;3.95;;
64816;SDS011;53289;45.602;11.904;2022-09-09T03:34:04;5.70;;;3.90;;
64816;SDS011;53289;45.602;11.904;2022-09-09T03:36:32;7.60;;;3.85;;
64816;SDS011;53289;45.602;11.904;2022-09-09T03:38:58;6.80;;;3.95;;
64816;SDS011;53289;45.602;11.904;2022-09-09T03:41:25;6.47;;;3.90;;
64816;SDS011;53289;45.602;11.904;2022-09-09T03:43:51;7.50;;;4.05;;
64816;SDS011;53289;45.602;11.904;2022-09-09T03:46:19;9.80;;;4.40;;
64816;SDS011;53289;45.602;11.904;2022-09-09T03:48:46;7.25;;;3.75;;
64816;SDS011;53289;45.602;11.904;2022-09-09T03:51:12;7.72;;;3.83;;
64816;SDS011;53289;45.602;11.904;2022-09-09T03:53:39;6.03;;;3.47;;
64816;SDS011;53289;45.602;11.904;2022-09-09T03:56:05;5.45;;;3.58;;
64816;SDS011;53289;45.602;11.904;2022-09-09T03:58:35;5.82;;;3.35;;
64816;SDS011;53289;45.602;11.904;2022-09-09T04:01:04;4.70;;;3.70;;
64816;SDS011;53289;45.602;11.904;2022-09-09T04:03:34;6.32;;;3.60;;
64816;SDS011;53289;45.602;11.904;2022-09-09T04:06:00;7.57;;;4.10;;
64816;SDS011;53289;45.602;11.904;2022-09-09T04:08:28;7.28;;;3.60;;
64816;SDS011;53289;45.602;11.904;2022-09-09T04:10:56;5.38;;;3.60;;
64816;SDS011;53289;45.602;11.904;2022-09-09T04:13:23;5.57;;;3.60;;
64816;SDS011;53289;45.602;11.904;2022-09-09T04:15:54;5.68;;;3.50;;
64816;SDS011;53289;45.602;11.904;2022-09-09T04:18:23;6.78;;;4.13;;
64816;SDS011;53289;45.602;11.904;2022-09-09T04:20:50;8.10;;;4.43;;
64816;SDS011;53289;45.602;11.904;2022-09-09T04:23:17;7.47;;;4.97;;
64816;SDS011;53289;45.602;11.904;2022-09-09T04:25:45;6.20;;;4.00;;
64816;SDS011;53289;45.602;11.904;2022-09-09T04:28:13;8.35;;;4.60;;
64816;SDS011;53289;45.602;11.904;2022-09-09T04:30:40;5.40;;;4.13;;
64816;SDS011;53289;45.602;11.904;2022-09-09T04:33:07;9.63;;;5.85;;
64816;SDS011;53289;45.602;11.904;2022-09-09T04:35:33;9.32;;;5.38;;
64816;SDS011;53289;45.602;11.904;2022-09-09T04:37:59;8.70;;;5.28;;
64816;SDS011;53289;45.602;11.904;2022-09-09T04:40:28;8.30;;;4.50;;
64816;SDS011;53289;45.602;11.904;2022-09-09T04:42:55;7.75;;;5.03;;
64816;SDS011;53289;45.602;11.904;2022-09-09T04:45:24;10.30;;;5.18;;
64816;SDS011;53289;45.602;11.904;2022-09-09T04:47:51;8.25;;;4.57;;
64816;SDS011;53289;45.602;11.904;2022-09-09T04:50:18;8.00;;;4.75;;
64816;SDS011;53289;45.602;11.904;2022-09-09T04:52:45;10.48;;;4.95;;
64816;SDS011;53289;45.602;11.904;2022-09-09T04:55:11;8.48;;;4.50;;
64816;SDS011;53289;45.602;11.904;2022-09-09T04:57:38;7.95;;;4.90;;
64816;SDS011;53289;45.602;11.904;2022-09-09T05:00:05;10.00;;;5.10;;
64816;SDS011;53289;45.602;11.904;2022-09-09T05:02:32;8.52;;;5.05;;
64816;SDS011;53289;45.602;11.904;2022-09-09T05:04:58;10.18;;;5.03;;
64816;SDS011;53289;45.602;11.904;2022-09-09T05:07:26;8.43;;;5.20;;
64816;SDS011;53289;45.602;11.904;2022-09-09T05:09:52;8.15;;;4.60;;
64816;SDS011;53289;45.602;11.904;2022-09-09T05:12:18;9.60;;;5.30;;
64816;SDS011;53289;45.602;11.904;2022-09-09T05:14:44;10.45;;;6.20;;
64816;SDS011;53289;45.602;11.904;2022-09-09T05:17:10;11.75;;;6.30;;
64816;SDS011;53289;45.602;11.904;2022-09-09T05:19:36;11.05;;;5.85;;
64816;SDS011;53289;45.602;11.904;2022-09-09T05:22:02;10.52;;;5.47;;
64816;SDS011;53289;45.602;11.904;2022-09-09T05:24:29;11.35;;;6.28;;
64816;SDS011;53289;45.602;11.904;2022-09-09T05:26:58;9.40;;;5.60;;
64816;SDS011;53289;45.602;11.904;2022-09-09T05:29:27;10.00;;;5.80;;
64816;SDS011;53289;45.602;11.904;2022-09-09T05:31:53;12.10;;;6.07;;
64816;SDS011;53289;45.602;11.904;2022-09-09T05:34:19;11.77;;;7.03;;
64816;SDS011;53289;45.602;11.904;2022-09-09T05:36:46;10.93;;;6.03;;
64816;SDS011;53289;45.602;11.904;2022-09-09T05:39:12;13.63;;;6.00;;
64816;SDS011;53289;45.602;11.904;2022-09-09T05:41:38;11.23;;;5.68;;
64816;SDS011;53289;45.602;11.904;2022-09-09T05:44:03;9.02;;;5.55;;
64816;SDS011;53289;45.602;11.904;2022-09-09T05:46:30;11.60;;;5.82;;
64816;SDS011;53289;45.602;11.904;2022-09-09T05:48:56;12.63;;;6.63;;
64816;SDS011;53289;45.602;11.904;2022-09-09T05:51:24;9.57;;;5.93;;
64816;SDS011;53289;45.602;11.904;2022-09-09T05:53:53;10.20;;;5.40;;
64816;SDS011;53289;45.602;11.904;2022-09-09T05:56:28;14.85;;;5.65;;
64816;SDS011;53289;45.602;11.904;2022-09-09T05:58:55;9.27;;;5.70;;
64816;SDS011;53289;45.602;11.904;2022-09-09T06:01:22;9.02;;;5.18;;
64816;SDS011;53289;45.602;11.904;2022-09-09T06:03:51;9.05;;;5.05;;
64816;SDS011;53289;45.602;11.904;2022-09-09T06:06:19;9.02;;;5.10;;
64816;SDS011;53289;45.602;11.904;2022-09-09T06:08:51;11.07;;;5.57;;
64816;SDS011;53289;45.602;11.904;2022-09-09T06:11:20;8.98;;;5.45;;
64816;SDS011;53289;45.602;11.904;2022-09-09T06:13:49;9.98;;;5.30;;
64816;SDS011;53289;45.602;11.904;2022-09-09T06:16:23;10.98;;;6.03;;
64816;SDS011;53289;45.602;11.904;2022-09-09T06:18:52;9.00;;;5.22;;
64816;SDS011;53289;45.602;11.904;2022-09-09T06:21:20;10.85;;;5.63;;
64816;SDS011;53289;45.602;11.904;2022-09-09T06:23:47;9.95;;;5.43;;
64816;SDS011;53289;45.602;11.904;2022-09-09T06:26:15;11.15;;;5.32;;
64816;SDS011;53289;45.602;11.904;2022-09-09T06:28:50;10.93;;;5.05;;
64816;SDS011;53289;45.602;11.904;2022-09-09T06:31:18;10.73;;;4.65;;
64816;SDS011;53289;45.602;11.904;2022-09-09T06:33:49;9.25;;;5.45;;
64816;SDS011;53289;45.602;11.904;2022-09-09T06:36:17;9.32;;;5.13;;
64816;SDS011;53289;45.602;11.904;2022-09-09T06:38:46;7.03;;;4.63;;
64816;SDS011;53289;45.602;11.904;2022-09-09T06:41:13;8.10;;;4.78;;
64816;SDS011;53289;45.602;11.904;2022-09-09T06:43:42;9.98;;;5.00;;
64816;SDS011;53289;45.602;11.904;2022-09-09T06:46:12;10.40;;;5.18;;
64816;SDS011;53289;45.602;11.904;2022-09-09T06:48:40;8.45;;;4.72;;
64816;SDS011;53289;45.602;11.904;2022-09-09T06:51:17;8.43;;;5.18;;
64816;SDS011;53289;45.602;11.904;2022-09-09T06:53:46;7.35;;;4.43;;
64816;SDS011;53289;45.602;11.904;2022-09-09T06:56:30;9.73;;;5.30;;
64816;SDS011;53289;45.602;11.904;2022-09-09T06:58:59;8.27;;;5.15;;
64816;SDS011;53289;45.602;11.904;2022-09-09T07:01:28;10.32;;;5.50;;
64816;SDS011;53289;45.602;11.904;2022-09-09T07:03:57;6.22;;;4.60;;
64816;SDS011;53289;45.602;11.904;2022-09-09T07:06:25;10.43;;;5.03;;
64816;SDS011;53289;45.602;11.904;2022-09-09T07:08:54;8.63;;;4.80;;
64816;SDS011;53289;45.602;11.904;2022-09-09T07:11:24;11.05;;;5.13;;
64816;SDS011;53289;45.602;11.904;2022-09-09T07:13:54;6.80;;;4.30;;
64816;SDS011;53289;45.602;11.904;2022-09-09T07:16:22;8.82;;;4.55;;
64816;SDS011;53289;45.602;11.904;2022-09-09T07:18:52;7.57;;;4.80;;
64816;SDS011;53289;45.602;11.904;2022-09-09T07:21:23;9.30;;;4.28;;
64816;SDS011;53289;45.602;11.904;2022-09-09T07:23:53;8.43;;;4.40;;
64816;SDS011;53289;45.602;11.904;2022-09-09T07:26:20;7.95;;;4.38;;
64816;SDS011;53289;45.602;11.904;2022-09-09T07:28:48;8.23;;;4.00;;
64816;SDS011;53289;45.602;11.904;2022-09-09T07:31:18;8.60;;;3.85;;
64816;SDS011;53289;45.602;11.904;2022-09-09T07:33:46;7.28;;;4.15;;
64816;SDS011;53289;45.602;11.904;2022-09-09T07:36:14;9.57;;;3.90;;
64816;SDS011;53289;45.602;11.904;2022-09-09T07:38:43;7.28;;;4.25;;
64816;SDS011;53289;45.602;11.904;2022-09-09T07:41:15;8.30;;;4.07;;
64816;SDS011;53289;45.602;11.904;2022-09-09T07:46:11;7.00;;;4.00;;
64816;SDS011;53289;45.602;11.904;2022-09-09T07:48:39;5.68;;;3.42;;
64816;SDS011;53289;45.602;11.904;2022-09-09T07:51:11;6.15;;;3.65;;
64816;SDS011;53289;45.602;11.904;2022-09-09T07:53:42;7.72;;;3.88;;
64816;SDS011;53289;45.602;11.904;2022-09-09T07:56:09;6.88;;;4.30;;
64816;SDS011;53289;45.602;11.904;2022-09-09T07:58:38;6.60;;;4.05;;
64816;SDS011;53289;45.602;11.904;2022-09-09T08:01:13;8.25;;;4.22;;
64816;SDS011;53289;45.602;11.904;2022-09-09T08:03:51;11.18;;;4.65;;
64816;SDS011;53289;45.602;11.904;2022-09-09T08:06:25;8.27;;;3.80;;
64816;SDS011;53289;45.602;11.904;2022-09-09T08:08:57;7.10;;;3.85;;
64816;SDS011;53289;45.602;11.904;2022-09-09T08:11:25;8.85;;;3.67;;
64816;SDS011;53289;45.602;11.904;2022-09-09T08:13:52;7.00;;;3.78;;
64816;SDS011;53289;45.602;11.904;2022-09-09T08:16:25;6.85;;;4.22;;
64816;SDS011;53289;45.602;11.904;2022-09-09T08:18:53;6.07;;;3.30;;
64816;SDS011;53289;45.602;11.904;2022-09-09T08:21:21;4.93;;;3.50;;
64816;SDS011;53289;45.602;11.904;2022-09-09T08:23:55;7.65;;;4.07;;
64816;SDS011;53289;45.602;11.904;2022-09-09T08:26:33;6.63;;;3.97;;
64816;SDS011;53289;45.602;11.904;2022-09-09T08:29:03;5.60;;;3.58;;
64816;SDS011;53289;45.602;11.904;2022-09-09T08:31:35;7.93;;;3.70;;
64816;SDS011;53289;45.602;11.904;2022-09-09T08:34:03;6.20;;;3.22;;
64816;SDS011;53289;45.602;11.904;2022-09-09T08:36:32;8.18;;;3.70;;
64816;SDS011;53289;45.602;11.904;2022-09-09T08:39:01;6.38;;;3.45;;
64816;SDS011;53289;45.602;11.904;2022-09-09T08:47:22;5.70;;;3.15;;
64816;SDS011;53289;45.602;11.904;2022-09-09T08:58:16;7.72;;;3.25;;
64816;SDS011;53289;45.602;11.904;2022-09-09T09:01:48;5.60;;;3.25;;
64816;SDS011;53289;45.602;11.904;2022-09-09T09:12:26;6.45;;;3.50;;
64816;SDS011;53289;45.602;11.904;2022-09-09T09:14:58;6.13;;;3.40;;
64816;SDS011;53289;45.602;11.904;2022-09-09T09:17:25;7.40;;;3.55;;
64816;SDS011;53289;45.602;11.904;2022-09-09T09:19:56;7.97;;;3.15;;
64816;SDS011;53289;45.602;11.904;2022-09-09T09:25:38;7.40;;;3.57;;
64816;SDS011;53289;45.602;11.904;2022-09-09T09:28:17;5.68;;;3.22;;
64816;SDS011;53289;45.602;11.904;2022-09-09T09:30:59;6.32;;;3.45;;
64816;SDS011;53289;45.602;11.904;2022-09-09T09:33:41;8.15;;;3.45;;
64816;SDS011;53289;45.602;11.904;2022-09-09T09:36:09;9.85;;;3.45;;
64816;SDS011;53289;45.602;11.904;2022-09-09T09:38:36;5.78;;;3.10;;
64816;SDS011;53289;45.602;11.904;2022-09-09T09:41:02;8.13;;;3.03;;
64816;SDS011;53289;45.602;11.904;2022-09-09T09:43:29;5.38;;;2.78;;
64816;SDS011;53289;45.602;11.904;2022-09-09T09:45:58;6.13;;;3.25;;
64816;SDS011;53289;45.602;11.904;2022-09-09T09:48:25;9.30;;;3.88;;
64816;SDS011;53289;45.602;11.904;2022-09-09T09:50:56;6.95;;;3.33;;
64816;SDS011;53289;45.602;11.904;2022-09-09T09:55:55;4.75;;;3.15;;
64816;SDS011;53289;45.602;11.904;2022-09-09T09:58:24;6.32;;;3.25;;
64816;SDS011;53289;45.602;11.904;2022-09-09T10:00:53;7.00;;;3.38;;
64816;SDS011;53289;45.602;11.904;2022-09-09T10:05:57;7.28;;;3.10;;
64816;SDS011;53289;45.602;11.904;2022-09-09T10:08:27;8.77;;;3.60;;
64816;SDS011;53289;45.602;11.904;2022-09-09T10:10:59;9.25;;;3.70;;
64816;SDS011;53289;45.602;11.904;2022-09-09T10:13:45;6.40;;;3.45;;
64816;SDS011;53289;45.602;11.904;2022-09-09T10:19:10;5.13;;;2.90;;
64816;SDS011;53289;45.602;11.904;2022-09-09T10:22:02;6.38;;;3.00;;
64816;SDS011;53289;45.602;11.904;2022-09-09T10:38:18;6.40;;;3.25;;
64816;SDS011;53289;45.602;11.904;2022-09-09T10:57:46;6.00;;;2.85;;
64816;SDS011;53289;45.602;11.904;2022-09-09T11:00:18;7.05;;;3.20;;
64816;SDS011;53289;45.602;11.904;2022-09-09T11:05:46;7.13;;;3.22;;
64816;SDS011;53289;45.602;11.904;2022-09-09T11:13:38;6.93;;;3.28;;
64816;SDS011;53289;45.602;11.904;2022-09-09T11:16:28;7.35;;;3.30;;
64816;SDS011;53289;45.602;11.904;2022-09-09T11:19:05;5.80;;;3.28;;
64816;SDS011;53289;45.602;11.904;2022-09-09T11:21:46;5.93;;;3.10;;
64816;SDS011;53289;45.602;11.904;2022-09-09T11:24:59;7.20;;;3.20;;
64816;SDS011;53289;45.602;11.904;2022-09-09T11:27:06;9.63;;;3.47;;
64816;SDS011;53289;45.602;11.904;2022-09-09T11:29:44;7.68;;;3.75;;
64816;SDS011;53289;45.602;11.904;2022-09-09T11:40:44;6.30;;;3.42;;
64816;SDS011;53289;45.602;11.904;2022-09-09T11:43:12;8.40;;;3.90;;
64816;SDS011;53289;45.602;11.904;2022-09-09T11:45:53;7.50;;;3.38;;
64816;SDS011;53289;45.602;11.904;2022-09-09T11:53:55;7.43;;;3.53;;
64816;SDS011;53289;45.602;11.904;2022-09-09T12:01:50;4.88;;;3.58;;
64816;SDS011;53289;45.602;11.904;2022-09-09T12:11:50;6.72;;;3.50;;
64816;SDS011;53289;45.602;11.904;2022-09-09T12:14:36;6.35;;;3.53;;
64816;SDS011;53289;45.602;11.904;2022-09-09T12:19:48;7.07;;;3.50;;
64816;SDS011;53289;45.602;11.904;2022-09-09T12:33:21;6.22;;;3.40;;
64816;SDS011;53289;45.602;11.904;2022-09-09T12:35:53;6.28;;;3.20;;
64816;SDS011;53289;45.602;11.904;2022-09-09T12:38:40;6.00;;;3.50;;
64816;SDS011;53289;45.602;11.904;2022-09-09T12:41:29;4.03;;;3.30;;
64816;SDS011;53289;45.602;11.904;2022-09-09T12:44:06;6.85;;;3.42;;
64816;SDS011;53289;45.602;11.904;2022-09-09T12:49:24;5.30;;;3.20;;
64816;SDS011;53289;45.602;11.904;2022-09-09T12:51:54;4.20;;;3.47;;
64816;SDS011;53289;45.602;11.904;2022-09-09T12:54:22;7.32;;;3.63;;
64816;SDS011;53289;45.602;11.904;2022-09-09T12:56:48;10.57;;;4.03;;
64816;SDS011;53289;45.602;11.904;2022-09-09T12:59:22;18.45;;;4.60;;
64816;SDS011;53289;45.602;11.904;2022-09-09T13:02:00;17.65;;;3.30;;
64816;SDS011;53289;45.602;11.904;2022-09-09T13:04:26;6.50;;;2.45;;
64816;SDS011;53289;45.602;11.904;2022-09-09T13:06:53;5.53;;;2.35;;
64816;SDS011;53289;45.602;11.904;2022-09-09T13:09:19;4.60;;;1.45;;
64816;SDS011;53289;45.602;11.904;2022-09-09T13:11:46;2.80;;;1.10;;
64816;SDS011;53289;45.602;11.904;2022-09-09T13:17:23;2.53;;;1.10;;
64816;SDS011;53289;45.602;11.904;2022-09-09T13:19:52;2.70;;;1.35;;
64816;SDS011;53289;45.602;11.904;2022-09-09T13:25:00;3.72;;;1.65;;
64816;SDS011;53289;45.602;11.904;2022-09-09T13:27:30;1.92;;;1.50;;
64816;SDS011;53289;45.602;11.904;2022-09-09T13:38:18;4.10;;;1.92;;
64816;SDS011;53289;45.602;11.904;2022-09-09T13:40:57;2.67;;;2.03;;
64816;SDS011;53289;45.602;11.904;2022-09-09T13:43:27;3.17;;;2.40;;
64816;SDS011;53289;45.602;11.904;2022-09-09T13:45:56;5.68;;;2.28;;
64816;SDS011;53289;45.602;11.904;2022-09-09T13:48:27;3.30;;;2.15;;
64816;SDS011;53289;45.602;11.904;2022-09-09T13:50:57;10.02;;;3.60;;
64816;SDS011;53289;45.602;11.904;2022-09-09T13:53:24;3.53;;;2.33;;
64816;SDS011;53289;45.602;11.904;2022-09-09T13:55:50;4.63;;;2.40;;
64816;SDS011;53289;45.602;11.904;2022-09-09T13:58:17;5.57;;;2.67;;
64816;SDS011;53289;45.602;11.904;2022-09-09T14:00:44;11.88;;;4.22;;
64816;SDS011;53289;45.602;11.904;2022-09-09T14:03:11;7.80;;;3.78;;
64816;SDS011;53289;45.602;11.904;2022-09-09T14:05:38;6.13;;;3.92;;
64816;SDS011;53289;45.602;11.904;2022-09-09T14:08:05;7.75;;;4.22;;
64816;SDS011;53289;45.602;11.904;2022-09-09T14:10:33;5.15;;;3.63;;
64816;SDS011;53289;45.602;11.904;2022-09-09T14:13:02;5.68;;;3.30;;
64816;SDS011;53289;45.602;11.904;2022-09-09T14:15:28;5.53;;;2.97;;
64816;SDS011;53289;45.602;11.904;2022-09-09T14:17:54;6.00;;;3.00;;
64816;SDS011;53289;45.602;11.904;2022-09-09T14:20:21;4.35;;;2.50;;
64816;SDS011;53289;45.602;11.904;2022-09-09T14:22:46;4.93;;;2.65;;
64816;SDS011;53289;45.602;11.904;2022-09-09T14:25:12;2.83;;;2.28;;
64816;SDS011;53289;45.602;11.904;2022-09-09T14:27:38;3.13;;;2.13;;
64816;SDS011;53289;45.602;11.904;2022-09-09T14:30:05;4.55;;;2.65;;
64816;SDS011;53289;45.602;11.904;2022-09-09T14:32:32;4.20;;;2.60;;
64816;SDS011;53289;45.602;11.904;2022-09-09T14:34:58;4.38;;;3.08;;
64816;SDS011;53289;45.602;11.904;2022-09-09T14:37:24;4.78;;;2.92;;
64816;SDS011;53289;45.602;11.904;2022-09-09T14:39:50;4.63;;;2.78;;
64816;SDS011;53289;45.602;11.904;2022-09-09T14:42:16;5.82;;;2.90;;
64816;SDS011;53289;45.602;11.904;2022-09-09T14:44:43;6.72;;;3.38;;
64816;SDS011;53289;45.602;11.904;2022-09-09T14:47:09;3.85;;;2.80;;
64816;SDS011;53289;45.602;11.904;2022-09-09T14:49:35;5.82;;;3.20;;
64816;SDS011;53289;45.602;11.904;2022-09-09T14:52:03;5.43;;;2.95;;
64816;SDS011;53289;45.602;11.904;2022-09-09T14:54:30;4.47;;;2.90;;
64816;SDS011;53289;45.602;11.904;2022-09-09T14:56:57;5.65;;;3.25;;
64816;SDS011;53289;45.602;11.904;2022-09-09T14:59:24;5.05;;;2.92;;
64816;SDS011;53289;45.602;11.904;2022-09-09T15:01:50;4.68;;;2.63;;
64816;SDS011;53289;45.602;11.904;2022-09-09T15:04:16;5.82;;;2.80;;
64816;SDS011;53289;45.602;11.904;2022-09-09T15:06:41;5.13;;;2.55;;
64816;SDS011;53289;45.602;11.904;2022-09-09T15:09:09;5.70;;;2.70;;
64816;SDS011;53289;45.602;11.904;2022-09-09T15:11:36;9.38;;;2.97;;
64816;SDS011;53289;45.602;11.904;2022-09-09T15:14:03;2.63;;;2.10;;
64816;SDS011;53289;45.602;11.904;2022-09-09T15:16:30;3.30;;;2.25;;
64816;SDS011;53289;45.602;11.904;2022-09-09T15:18:58;6.30;;;2.60;;
64816;SDS011;53289;45.602;11.904;2022-09-09T15:21:28;7.95;;;3.05;;
64816;SDS011;53289;45.602;11.904;2022-09-09T15:23:56;4.82;;;2.80;;
64816;SDS011;53289;45.602;11.904;2022-09-09T15:26:24;5.07;;;2.40;;
64816;SDS011;53289;45.602;11.904;2022-09-09T15:28:51;3.67;;;2.47;;
64816;SDS011;53289;45.602;11.904;2022-09-09T15:31:23;7.32;;;2.72;;
64816;SDS011;53289;45.602;11.904;2022-09-09T15:33:54;5.65;;;2.60;;
64816;SDS011;53289;45.602;11.904;2022-09-09T15:36:29;5.32;;;2.33;;
64816;SDS011;53289;45.602;11.904;2022-09-09T15:38:57;4.32;;;2.10;;
64816;SDS011;53289;45.602;11.904;2022-09-09T15:41:24;4.20;;;2.38;;
64816;SDS011;53289;45.602;11.904;2022-09-09T15:43:51;3.17;;;2.20;;
64816;SDS011;53289;45.602;11.904;2022-09-09T15:51:37;1.90;;;1.80;;
64816;SDS011;53289;45.602;11.904;2022-09-09T15:54:05;4.20;;;2.83;;
64816;SDS011;53289;45.602;11.904;2022-09-09T15:56:31;4.18;;;2.63;;
64816;SDS011;53289;45.602;11.904;2022-09-09T15:58:58;4.93;;;2.45;;
64816;SDS011;53289;45.602;11.904;2022-09-09T16:01:25;4.32;;;2.28;;
64816;SDS011;53289;45.602;11.904;2022-09-09T16:03:52;3.45;;;2.20;;
64816;SDS011;53289;45.602;11.904;2022-09-09T16:06:19;2.60;;;2.30;;
64816;SDS011;53289;45.602;11.904;2022-09-09T16:08:47;4.43;;;2.35;;
64816;SDS011;53289;45.602;11.904;2022-09-09T16:11:24;5.03;;;2.15;;
64816;SDS011;53289;45.602;11.904;2022-09-09T16:13:52;6.88;;;2.30;;
64816;SDS011;53289;45.602;11.904;2022-09-09T16:16:20;4.63;;;2.42;;
64816;SDS011;53289;45.602;11.904;2022-09-09T16:18:50;4.65;;;2.35;;
64816;SDS011;53289;45.602;11.904;2022-09-09T16:21:19;3.40;;;2.30;;
64816;SDS011;53289;45.602;11.904;2022-09-09T16:23:56;3.97;;;3.28;;
64816;SDS011;53289;45.602;11.904;2022-09-09T16:26:24;4.93;;;3.00;;
64816;SDS011;53289;45.602;11.904;2022-09-09T16:28:52;5.90;;;2.60;;
64816;SDS011;53289;45.602;11.904;2022-09-09T16:31:20;5.93;;;2.70;;
64816;SDS011;53289;45.602;11.904;2022-09-09T16:33:48;4.07;;;2.55;;
64816;SDS011;53289;45.602;11.904;2022-09-09T16:36:22;3.58;;;2.10;;
64816;SDS011;53289;45.602;11.904;2022-09-09T16:38:53;4.50;;;3.00;;
64816;SDS011;53289;45.602;11.904;2022-09-09T16:41:20;3.83;;;2.20;;
64816;SDS011;53289;45.602;11.904;2022-09-09T16:43:47;3.65;;;2.20;;
64816;SDS011;53289;45.602;11.904;2022-09-09T16:46:17;4.90;;;2.67;;
64816;SDS011;53289;45.602;11.904;2022-09-09T16:48:45;3.30;;;2.80;;
64816;SDS011;53289;45.602;11.904;2022-09-09T16:51:20;3.75;;;2.25;;
64816;SDS011;53289;45.602;11.904;2022-09-09T16:53:51;2.42;;;2.00;;
64816;SDS011;53289;45.602;11.904;2022-09-09T16:56:19;3.30;;;2.30;;
64816;SDS011;53289;45.602;11.904;2022-09-09T16:58:53;4.18;;;2.22;;
64816;SDS011;53289;45.602;11.904;2022-09-09T17:01:21;5.20;;;2.83;;
64816;SDS011;53289;45.602;11.904;2022-09-09T17:03:52;3.67;;;2.28;;
64816;SDS011;53289;45.602;11.904;2022-09-09T17:06:19;4.03;;;2.20;;
64816;SDS011;53289;45.602;11.904;2022-09-09T17:08:44;3.65;;;1.90;;
64816;SDS011;53289;45.602;11.904;2022-09-09T17:11:11;3.28;;;2.10;;
64816;SDS011;53289;45.602;11.904;2022-09-09T17:13:42;2.25;;;2.00;;
64816;SDS011;53289;45.602;11.904;2022-09-09T17:16:09;5.07;;;2.10;;
64816;SDS011;53289;45.602;11.904;2022-09-09T17:18:35;3.08;;;2.10;;
64816;SDS011;53289;45.602;11.904;2022-09-09T17:21:05;3.60;;;2.22;;
64816;SDS011;53289;45.602;11.904;2022-09-09T17:23:37;3.55;;;2.10;;
64816;SDS011;53289;45.602;11.904;2022-09-09T17:26:06;3.55;;;2.30;;
64816;SDS011;53289;45.602;11.904;2022-09-09T17:28:35;4.85;;;3.00;;
64816;SDS011;53289;45.602;11.904;2022-09-09T17:31:04;8.02;;;3.33;;
64816;SDS011;53289;45.602;11.904;2022-09-09T17:33:32;5.68;;;2.95;;
64816;SDS011;53289;45.602;11.904;2022-09-09T17:36:01;4.10;;;2.70;;
64816;SDS011;53289;45.602;11.904;2022-09-09T17:38:32;4.43;;;2.80;;
64816;SDS011;53289;45.602;11.904;2022-09-09T17:41:05;5.13;;;2.50;;
64816;SDS011;53289;45.602;11.904;2022-09-09T17:43:45;5.70;;;2.63;;
64816;SDS011;53289;45.602;11.904;2022-09-09T17:48:39;4.03;;;2.80;;
64816;SDS011;53289;45.602;11.904;2022-09-09T17:51:07;3.95;;;2.40;;
64816;SDS011;53289;45.602;11.904;2022-09-09T17:53:40;6.30;;;2.38;;
64816;SDS011;53289;45.602;11.904;2022-09-09T17:56:11;3.15;;;2.25;;
64816;SDS011;53289;45.602;11.904;2022-09-09T17:58:39;3.55;;;2.40;;
64816;SDS011;53289;45.602;11.904;2022-09-09T18:01:06;4.13;;;2.22;;
64816;SDS011;53289;45.602;11.904;2022-09-09T18:03:34;6.85;;;2.50;;
64816;SDS011;53289;45.602;11.904;2022-09-09T18:06:04;4.35;;;2.15;;
64816;SDS011;53289;45.602;11.904;2022-09-09T18:08:31;3.42;;;2.38;;
64816;SDS011;53289;45.602;11.904;2022-09-09T18:10:58;2.95;;;2.65;;